createdAt,value
2023-03-02T00:00:57.429Z,11.55
2023-03-02T00:03:23.821Z,12.23
2023-03-02T00:05:50.224Z,11.45
2023-03-02T00:08:18.180Z,11.02
2023-03-02T00:10:44.677Z,12.00
2023-03-02T00:13:11.769Z,11.48
2023-03-02T00:15:38.064Z,10.90
2023-03-02T00:18:04.350Z,11.27
2023-03-02T00:20:30.620Z,12.35
2023-03-02T00:22:56.816Z,12.10
2023-03-02T00:25:23.247Z,11.43
2023-03-02T00:27:50.237Z,11.35
2023-03-02T00:30:16.853Z,11.10
2023-03-02T00:32:43.138Z,11.23
2023-03-02T00:35:09.518Z,10.68
2023-03-02T00:37:36.381Z,12.23
2023-03-02T00:40:05.223Z,10.93
2023-03-02T00:42:31.605Z,11.38
2023-03-02T00:44:59.117Z,11.15
2023-03-02T00:47:25.308Z,11.48
2023-03-02T00:49:51.535Z,11.95
2023-03-02T00:52:17.874Z,11.85
2023-03-02T00:54:44.195Z,12.57
2023-03-02T00:57:10.420Z,11.50
2023-03-02T00:59:37.375Z,11.75
2023-03-02T01:02:03.640Z,11.30
2023-03-02T01:04:31.988Z,10.98
2023-03-02T01:06:59.490Z,10.23
2023-03-02T01:09:26.191Z,11.98
2023-03-02T01:11:52.402Z,11.68
2023-03-02T01:14:18.842Z,12.43
2023-03-02T01:16:45.311Z,11.38
2023-03-02T01:19:11.538Z,11.00
2023-03-02T01:21:37.733Z,10.93
2023-03-02T01:24:04.148Z,11.70
2023-03-02T01:26:30.669Z,11.60
2023-03-02T01:28:57.514Z,10.88
2023-03-02T01:31:24.866Z,10.68
2023-03-02T01:33:51.525Z,11.15
2023-03-02T01:36:17.849Z,10.57
2023-03-02T01:38:44.197Z,12.15
2023-03-02T01:41:10.913Z,11.68
2023-03-02T01:43:37.506Z,10.70
2023-03-02T01:46:17.634Z,11.65
2023-03-02T01:48:46.856Z,11.63
2023-03-02T01:51:15.882Z,11.25
2023-03-02T01:53:46.491Z,10.90
2023-03-02T01:56:14.651Z,11.50
2023-03-02T01:58:41.043Z,11.07
2023-03-02T02:01:15.257Z,11.65
2023-03-02T02:03:42.802Z,11.32
2023-03-02T02:06:12.277Z,10.68
2023-03-02T02:08:38.973Z,11.02
2023-03-02T02:11:05.815Z,10.05
2023-03-02T02:13:32.210Z,10.57
2023-03-02T02:15:58.419Z,10.88
2023-03-02T02:18:25.265Z,10.65
2023-03-02T02:20:52.432Z,10.63
2023-03-02T02:23:27.319Z,11.35
2023-03-02T02:25:53.934Z,10.52
2023-03-02T02:28:25.139Z,10.98
2023-03-02T02:33:21.039Z,11.52
2023-03-02T02:35:47.742Z,11.18
2023-03-02T02:38:15.724Z,11.60
2023-03-02T02:40:41.987Z,9.85
2023-03-02T02:43:11.288Z,11.70
2023-03-02T02:45:37.521Z,10.45
2023-03-02T02:48:03.873Z,10.60
2023-03-02T02:50:32.099Z,9.93
2023-03-02T02:53:05.373Z,10.65
2023-03-02T02:55:32.674Z,10.20
2023-03-02T02:58:00.794Z,11.23
2023-03-02T03:00:27.149Z,10.57
2023-03-02T03:02:56.399Z,10.02
2023-03-02T03:05:22.641Z,10.98
2023-03-02T03:07:48.887Z,11.52
2023-03-02T03:10:21.028Z,10.85
2023-03-02T03:12:47.464Z,10.95
2023-03-02T03:15:14.234Z,11.75
2023-03-02T03:17:40.805Z,10.88
2023-03-02T03:20:10.430Z,11.45
2023-03-02T03:22:38.013Z,10.13
2023-03-02T03:25:05.088Z,10.50
2023-03-02T03:27:31.288Z,11.15
2023-03-02T03:29:57.544Z,11.48
2023-03-02T03:32:23.818Z,10.98
2023-03-02T03:34:50.236Z,10.75
2023-03-02T03:37:17.434Z,11.45
2023-03-02T03:39:44.011Z,9.95
2023-03-02T03:42:10.240Z,10.40
2023-03-02T03:44:36.535Z,10.15
2023-03-02T03:47:03.076Z,11.73
2023-03-02T03:49:29.304Z,10.45
2023-03-02T03:51:55.744Z,10.45
2023-03-02T03:54:22.265Z,11.00
2023-03-02T03:56:49.541Z,10.98
2023-03-02T03:59:17.893Z,10.88
2023-03-02T04:01:45.890Z,10.68
2023-03-02T04:04:20.489Z,10.00
2023-03-02T04:06:46.803Z,10.77
2023-03-02T04:09:15.240Z,10.75
2023-03-02T04:11:42.514Z,10.23
2023-03-02T04:14:09.462Z,11.18
2023-03-02T04:16:36.630Z,11.27
2023-03-02T04:19:03.471Z,10.27
2023-03-02T04:21:29.876Z,10.13
2023-03-02T04:23:56.268Z,11.25
2023-03-02T04:26:22.533Z,10.73
2023-03-02T04:28:50.753Z,10.57
2023-03-02T04:31:17.400Z,11.10
2023-03-02T04:33:43.708Z,10.98
2023-03-02T04:36:10.047Z,10.82
2023-03-02T04:38:36.374Z,11.50
2023-03-02T04:41:02.652Z,10.93
2023-03-02T04:43:29.191Z,10.43
2023-03-02T04:45:55.400Z,10.65
2023-03-02T04:48:22.125Z,11.38
2023-03-02T04:50:48.385Z,11.20
2023-03-02T04:53:14.779Z,10.25
2023-03-02T04:55:41.310Z,11.35
2023-03-02T04:58:07.918Z,11.18
2023-03-02T05:00:35.193Z,10.77
2023-03-02T05:03:02.241Z,11.77
2023-03-02T05:05:28.873Z,12.10
2023-03-02T05:07:55.463Z,10.93
2023-03-02T05:10:22.002Z,11.38
2023-03-02T05:13:14.536Z,11.23
2023-03-02T05:15:40.960Z,11.25
2023-03-02T05:18:08.598Z,10.63
2023-03-02T05:20:35.416Z,11.07
2023-03-02T05:23:02.918Z,11.50
2023-03-02T05:25:30.536Z,11.80
2023-03-02T05:27:57.100Z,11.00
2023-03-02T05:30:24.191Z,11.95
2023-03-02T05:32:51.126Z,10.73
2023-03-02T05:35:17.395Z,10.85
2023-03-02T05:37:44.742Z,10.70
2023-03-02T05:40:12.375Z,11.52
2023-03-02T05:42:38.638Z,11.32
2023-03-02T05:45:05.775Z,11.23
2023-03-02T05:47:31.971Z,10.88
2023-03-02T05:49:59.167Z,11.68
2023-03-02T05:52:25.883Z,12.52
2023-03-02T05:54:52.434Z,12.05
2023-03-02T05:57:18.660Z,13.73
2023-03-02T05:59:46.355Z,12.70
2023-03-02T06:02:13.108Z,12.20
2023-03-02T06:04:42.991Z,11.90
2023-03-02T06:07:10.666Z,12.18
2023-03-02T06:09:40.677Z,12.60
2023-03-02T06:12:07.792Z,13.43
2023-03-02T06:14:34.798Z,11.90
2023-03-02T06:17:01.074Z,12.88
2023-03-02T06:19:27.288Z,13.65
2023-03-02T06:21:53.737Z,11.93
2023-03-02T06:24:19.949Z,12.55
2023-03-02T06:26:46.179Z,11.40
2023-03-02T06:29:13.261Z,12.48
2023-03-02T06:31:39.680Z,12.43
2023-03-02T06:34:05.891Z,12.30
2023-03-02T06:36:32.553Z,12.10
2023-03-02T06:38:58.991Z,11.90
2023-03-02T06:41:25.644Z,12.10
2023-03-02T06:43:51.840Z,12.15
2023-03-02T06:46:18.069Z,12.05
2023-03-02T06:48:44.293Z,12.75
2023-03-02T06:51:12.520Z,13.02
2023-03-02T06:53:38.745Z,12.25
2023-03-02T06:56:05.292Z,12.45
2023-03-02T06:58:31.541Z,12.40
2023-03-02T07:00:57.843Z,12.23
2023-03-02T07:03:24.100Z,11.93
2023-03-02T07:05:52.098Z,13.32
2023-03-02T07:08:18.340Z,12.60
2023-03-02T07:10:44.597Z,12.32
2023-03-02T07:13:10.812Z,12.27
2023-03-02T07:15:38.742Z,12.32
2023-03-02T07:18:04.966Z,10.90
2023-03-02T07:20:31.234Z,11.27
2023-03-02T07:22:57.460Z,10.95
2023-03-02T07:25:23.684Z,11.50
2023-03-02T07:27:49.909Z,10.57
2023-03-02T07:30:20.917Z,11.23
2023-03-02T07:32:50.225Z,11.40
2023-03-02T07:35:17.283Z,10.60
2023-03-02T07:37:44.148Z,10.15
2023-03-02T07:40:11.470Z,10.07
2023-03-02T07:42:38.540Z,11.00
2023-03-02T07:45:05.329Z,10.05
2023-03-02T07:47:32.073Z,10.13
2023-03-02T07:49:58.575Z,11.13
2023-03-02T07:52:24.769Z,11.05
2023-03-02T07:54:51.041Z,10.85
2023-03-02T07:57:18.059Z,10.48
2023-03-02T07:59:44.269Z,11.02
2023-03-02T08:02:12.726Z,10.45
2023-03-02T08:04:39.058Z,10.73
2023-03-02T08:07:05.304Z,10.40
2023-03-02T08:09:31.809Z,10.60
2023-03-02T08:11:58.076Z,10.10
2023-03-02T08:14:24.629Z,10.43
2023-03-02T08:16:52.160Z,10.00
2023-03-02T08:19:19.362Z,9.95
2023-03-02T08:21:45.643Z,9.75
2023-03-02T08:24:12.000Z,10.35
2023-03-02T08:26:38.778Z,10.13
2023-03-02T08:29:05.318Z,9.25
2023-03-02T08:31:31.940Z,9.57
2023-03-02T08:33:59.415Z,9.98
2023-03-02T08:36:25.894Z,9.40
2023-03-02T08:38:52.092Z,9.15
2023-03-02T08:41:20.014Z,8.93
2023-03-02T08:43:46.588Z,9.13
2023-03-02T08:46:14.093Z,8.85
2023-03-02T08:48:40.380Z,8.15
2023-03-02T08:51:08.082Z,8.75
2023-03-02T08:53:36.344Z,8.48
2023-03-02T08:56:02.972Z,8.85
2023-03-02T08:58:29.641Z,8.32
2023-03-02T09:00:55.878Z,8.25
2023-03-02T09:03:22.143Z,9.02
2023-03-02T09:05:48.414Z,8.77
2023-03-02T09:08:14.647Z,8.95
2023-03-02T09:10:40.872Z,8.50
2023-03-02T09:13:08.525Z,9.07
2023-03-02T09:15:35.069Z,8.80
2023-03-02T09:18:01.303Z,8.13
2023-03-02T09:20:27.606Z,9.57
2023-03-02T09:22:53.827Z,9.30
2023-03-02T09:25:20.181Z,9.70
2023-03-02T09:27:46.601Z,9.13
2023-03-02T09:30:13.534Z,9.77
2023-03-02T09:32:40.258Z,8.93
2023-03-02T09:35:07.028Z,8.63
2023-03-02T09:37:35.075Z,9.65
2023-03-02T09:40:01.284Z,9.35
2023-03-02T09:42:43.555Z,9.35
2023-03-02T09:45:34.052Z,9.20
2023-03-02T09:48:05.242Z,8.93
2023-03-02T09:50:39.793Z,8.48
2023-03-02T09:53:09.072Z,8.55
2023-03-02T09:55:36.284Z,8.18
2023-03-02T09:58:05.944Z,7.65
2023-03-02T10:00:37.032Z,8.73
2023-03-02T10:03:16.688Z,8.77
2023-03-02T10:05:48.379Z,8.70
2023-03-02T10:08:14.570Z,8.70
2023-03-02T10:10:44.140Z,7.90
2023-03-02T10:13:16.208Z,7.97
2023-03-02T10:16:01.124Z,8.15
2023-03-02T10:18:39.546Z,8.30
2023-03-02T10:21:22.372Z,8.10
2023-03-02T10:24:02.259Z,7.60
2023-03-02T10:26:28.486Z,8.13
2023-03-02T10:29:00.103Z,8.32
2023-03-02T10:31:28.058Z,8.32
2023-03-02T10:33:54.715Z,8.30
2023-03-02T10:36:25.406Z,8.38
2023-03-02T10:38:52.277Z,8.55
2023-03-02T10:41:26.952Z,8.48
2023-03-02T10:43:55.589Z,7.90
2023-03-02T10:46:21.886Z,7.90
2023-03-02T10:48:49.946Z,7.88
2023-03-02T10:51:24.210Z,7.50
2023-03-02T10:53:50.642Z,7.93
2023-03-02T10:56:21.194Z,7.97
2023-03-02T10:58:47.474Z,7.72
2023-03-02T11:01:18.422Z,8.45
2023-03-02T11:03:55.263Z,7.93
2023-03-02T11:06:22.562Z,8.55
2023-03-02T11:09:05.080Z,8.20
2023-03-02T11:11:32.207Z,8.77
2023-03-02T11:14:15.668Z,8.18
2023-03-02T11:16:41.922Z,8.30
2023-03-02T11:19:13.550Z,8.93
2023-03-02T11:21:51.603Z,8.57
2023-03-02T11:24:23.604Z,8.40
2023-03-02T11:27:12.929Z,8.32
2023-03-02T11:29:47.636Z,8.25
2023-03-02T11:32:25.258Z,8.13
2023-03-02T11:35:02.667Z,8.50
2023-03-02T11:37:37.904Z,8.63
2023-03-02T11:40:18.958Z,7.80
2023-03-02T11:42:45.624Z,7.47
2023-03-02T11:45:15.414Z,7.68
2023-03-02T11:47:51.528Z,8.00
2023-03-02T11:50:20.591Z,7.35
2023-03-02T11:52:49.111Z,8.23
2023-03-02T11:55:23.333Z,8.32
2023-03-02T11:57:52.121Z,8.18
2023-03-02T12:00:30.335Z,8.35
2023-03-02T12:03:04.772Z,7.78
2023-03-02T12:05:34.843Z,8.23
2023-03-02T12:08:27.188Z,7.43
2023-03-02T12:11:04.280Z,7.70
2023-03-02T12:13:32.709Z,7.60
2023-03-02T12:15:59.052Z,7.35
2023-03-02T12:18:25.313Z,7.05
2023-03-02T12:21:05.303Z,7.78
2023-03-02T12:23:32.977Z,7.47
2023-03-02T12:26:04.165Z,8.10
2023-03-02T12:31:01.157Z,8.23
2023-03-02T12:33:27.381Z,7.97
2023-03-02T12:36:02.028Z,8.43
2023-03-02T12:38:30.754Z,7.90
2023-03-02T12:41:07.257Z,8.85
2023-03-02T12:43:34.686Z,8.38
2023-03-02T12:46:13.619Z,8.00
2023-03-02T12:48:58.780Z,8.13
2023-03-02T12:51:29.680Z,7.22
2023-03-02T12:54:02.731Z,7.85
2023-03-02T12:56:28.953Z,7.82
2023-03-02T12:58:55.236Z,8.30
2023-03-02T13:01:22.843Z,7.82
2023-03-02T13:03:49.156Z,7.75
2023-03-02T13:06:16.092Z,7.47
2023-03-02T13:08:43.869Z,8.07
2023-03-02T13:11:10.365Z,7.93
2023-03-02T13:13:41.166Z,7.88
2023-03-02T13:16:19.240Z,8.10
2023-03-02T13:18:45.792Z,7.78
2023-03-02T13:21:13.767Z,8.02
2023-03-02T13:23:47.369Z,7.22
2023-03-02T13:26:33.786Z,7.75
2023-03-02T13:29:04.951Z,6.80
2023-03-02T13:31:32.067Z,7.72
2023-03-02T13:33:58.994Z,7.82
2023-03-02T13:36:35.538Z,7.80
2023-03-02T13:39:02.123Z,7.07
2023-03-02T13:41:29.948Z,7.00
2023-03-02T13:43:56.804Z,6.95
2023-03-02T13:46:33.485Z,7.13
2023-03-02T13:49:10.223Z,7.15
2023-03-02T13:51:38.990Z,6.90
2023-03-02T13:54:06.411Z,7.25
2023-03-02T13:56:43.858Z,7.25
2023-03-02T13:59:14.543Z,7.03
2023-03-02T14:01:49.560Z,7.60
2023-03-02T14:04:17.740Z,7.57
2023-03-02T14:06:44.620Z,6.80
2023-03-02T14:09:11.195Z,7.03
2023-03-02T14:11:39.985Z,7.22
2023-03-02T14:14:06.790Z,7.75
2023-03-02T14:16:35.942Z,6.97
2023-03-02T14:19:02.159Z,7.05
2023-03-02T14:21:28.478Z,8.10
2023-03-02T14:23:55.182Z,7.00
2023-03-02T14:26:47.702Z,7.30
2023-03-02T14:29:13.890Z,6.68
2023-03-02T14:31:40.096Z,7.38
2023-03-02T14:34:06.281Z,7.18
2023-03-02T14:36:33.779Z,7.22
2023-03-02T14:39:01.641Z,6.70
2023-03-02T14:41:28.373Z,7.80
2023-03-02T14:43:54.772Z,7.65
2023-03-02T14:46:21.327Z,6.85
2023-03-02T14:48:47.830Z,6.97
2023-03-02T14:51:20.109Z,7.13
2023-03-02T14:53:47.242Z,6.85
2023-03-02T14:56:14.059Z,6.90
2023-03-02T14:58:40.286Z,6.68
2023-03-02T15:01:06.535Z,6.50
2023-03-02T15:03:32.878Z,6.60
2023-03-02T15:06:01.652Z,6.43
2023-03-02T15:08:28.932Z,6.30
2023-03-02T15:10:55.380Z,6.00
2023-03-02T15:13:21.674Z,5.75
2023-03-02T15:15:48.614Z,6.03
2023-03-02T15:18:16.862Z,5.22
2023-03-02T15:20:43.085Z,5.63
2023-03-02T15:23:09.318Z,6.03
2023-03-02T15:25:35.678Z,5.95
2023-03-02T15:28:03.880Z,6.05
2023-03-02T15:30:30.492Z,5.82
2023-03-02T15:32:59.805Z,6.15
2023-03-02T15:35:27.302Z,6.47
2023-03-02T15:37:54.054Z,5.63
2023-03-02T15:40:20.253Z,5.93
2023-03-02T15:42:46.522Z,5.82
2023-03-02T15:45:12.760Z,6.13
2023-03-02T15:47:39.057Z,5.63
2023-03-02T15:50:05.497Z,5.85
2023-03-02T15:52:31.762Z,5.22
2023-03-02T15:54:58.049Z,6.43
2023-03-02T15:57:24.273Z,5.32
2023-03-02T15:59:50.494Z,5.47
2023-03-02T16:02:16.779Z,5.43
2023-03-02T16:04:43.074Z,5.03
2023-03-02T16:07:09.281Z,5.25
2023-03-02T16:09:35.543Z,5.00
2023-03-02T16:12:01.872Z,4.97
2023-03-02T16:14:28.056Z,5.25
2023-03-02T16:16:54.335Z,5.47
2023-03-02T16:19:20.669Z,5.07
2023-03-02T16:21:47.537Z,5.30
2023-03-02T16:24:15.960Z,5.50
2023-03-02T16:26:42.451Z,4.50
2023-03-02T16:29:08.781Z,4.80
2023-03-02T16:31:37.629Z,4.53
2023-03-02T16:34:07.234Z,5.18
2023-03-02T16:36:34.133Z,5.38
2023-03-02T16:39:00.353Z,4.75
2023-03-02T16:41:26.591Z,4.82
2023-03-02T16:43:56.573Z,5.15
2023-03-02T16:46:23.731Z,4.82
2023-03-02T16:48:50.492Z,5.50
2023-03-02T16:51:17.892Z,5.20
2023-03-02T16:53:44.166Z,5.25
2023-03-02T16:56:11.341Z,4.82
2023-03-02T16:58:39.607Z,4.75
2023-03-02T17:01:07.162Z,4.95
2023-03-02T17:03:33.758Z,5.53
2023-03-02T17:06:00.026Z,4.32
2023-03-02T17:08:26.266Z,4.75
2023-03-02T17:10:52.503Z,5.35
2023-03-02T17:13:18.811Z,5.72
2023-03-02T17:15:45.081Z,4.97
2023-03-02T17:18:11.393Z,5.22
2023-03-02T17:20:37.820Z,5.15
2023-03-02T17:23:04.291Z,5.05
2023-03-02T17:25:30.577Z,5.20
2023-03-02T17:27:57.084Z,5.50
2023-03-02T17:30:23.311Z,5.38
2023-03-02T17:32:49.606Z,5.30
2023-03-02T17:35:15.865Z,5.60
2023-03-02T17:37:42.403Z,5.30
2023-03-02T17:40:12.405Z,5.45
2023-03-02T17:42:39.347Z,5.40
2023-03-02T17:45:06.129Z,5.18
2023-03-02T17:47:32.964Z,5.63
2023-03-02T17:49:59.377Z,5.85
2023-03-02T17:52:25.756Z,5.97
2023-03-02T17:54:54.106Z,5.25
2023-03-02T17:57:22.502Z,5.95
2023-03-02T17:59:50.294Z,5.75
2023-03-02T18:02:17.544Z,5.40
2023-03-02T18:04:45.352Z,5.70
2023-03-02T18:07:12.127Z,5.68
2023-03-02T18:09:38.649Z,5.95
2023-03-02T18:12:05.025Z,5.68
2023-03-02T18:14:31.342Z,5.40
2023-03-02T18:16:57.589Z,5.70
2023-03-02T18:19:23.870Z,5.50
2023-03-02T18:21:50.070Z,5.85
2023-03-02T18:24:16.294Z,6.57
2023-03-02T18:26:42.517Z,5.63
2023-03-02T18:29:08.727Z,5.75
2023-03-02T18:31:35.056Z,6.30
2023-03-02T18:34:01.605Z,5.93
2023-03-02T18:36:27.883Z,6.43
2023-03-02T18:38:54.420Z,6.38
2023-03-02T18:41:21.942Z,6.63
2023-03-02T18:43:49.006Z,6.10
2023-03-02T18:46:19.839Z,6.25
2023-03-02T18:48:46.704Z,5.50
2023-03-02T18:51:13.319Z,6.30
2023-03-02T18:53:40.892Z,6.55
2023-03-02T18:56:07.237Z,6.70
2023-03-02T18:58:34.681Z,6.20
2023-03-02T19:01:01.388Z,6.57
2023-03-02T19:03:27.989Z,6.05
2023-03-02T19:05:57.642Z,7.22
2023-03-02T19:08:24.590Z,6.82
2023-03-02T19:10:51.408Z,6.65
2023-03-02T19:13:18.186Z,7.00
2023-03-02T19:15:44.878Z,8.23
2023-03-02T19:18:15.984Z,7.47
2023-03-02T19:20:43.068Z,8.63
2023-03-02T19:23:09.297Z,9.73
2023-03-02T19:25:35.628Z,9.02
2023-03-02T19:28:02.108Z,9.80
2023-03-02T19:30:28.422Z,11.25
2023-03-02T19:32:54.650Z,12.15
2023-03-02T19:35:22.253Z,9.52
2023-03-02T19:37:48.534Z,9.57
2023-03-02T19:40:17.166Z,9.68
2023-03-02T19:42:45.310Z,10.45
2023-03-02T19:45:13.959Z,10.35
2023-03-02T19:47:40.219Z,10.57
2023-03-02T19:50:06.794Z,10.52
2023-03-02T19:52:33.302Z,10.93
2023-03-02T19:54:59.632Z,11.63
2023-03-02T19:57:25.894Z,12.65
2023-03-02T19:59:52.153Z,12.85
2023-03-02T20:02:19.544Z,13.30
2023-03-02T20:04:46.712Z,12.20
2023-03-02T20:07:13.578Z,13.10
2023-03-02T20:09:42.113Z,12.35
2023-03-02T20:12:09.114Z,12.48
2023-03-02T20:14:36.011Z,12.50
2023-03-02T20:17:03.376Z,13.23
2023-03-02T20:19:29.664Z,14.20
2023-03-02T20:21:55.893Z,13.88
2023-03-02T20:24:22.106Z,14.15
2023-03-02T20:26:48.387Z,14.43
2023-03-02T20:29:14.654Z,14.98
2023-03-02T20:31:40.922Z,15.10
2023-03-02T20:34:08.714Z,15.75
2023-03-02T20:36:35.838Z,15.75
2023-03-02T20:39:06.039Z,16.40
2023-03-02T20:41:32.648Z,16.45
2023-03-02T20:43:59.107Z,15.95
2023-03-02T20:46:30.709Z,16.10
2023-03-02T20:48:57.030Z,16.35
2023-03-02T20:51:23.276Z,16.80
2023-03-02T20:53:50.076Z,16.30
2023-03-02T20:56:18.118Z,15.85
2023-03-02T20:58:44.585Z,16.70
2023-03-02T21:01:11.578Z,16.67
2023-03-02T21:03:38.479Z,16.05
2023-03-02T21:06:05.336Z,16.17
2023-03-02T21:08:34.184Z,16.55
2023-03-02T21:11:00.453Z,16.80
2023-03-02T21:13:26.882Z,17.13
2023-03-02T21:15:53.349Z,17.08
2023-03-02T21:18:19.715Z,17.42
2023-03-02T21:20:45.959Z,16.50
2023-03-02T21:23:12.633Z,17.20
2023-03-02T21:25:41.185Z,17.23
2023-03-02T21:28:08.555Z,18.13
2023-03-02T21:30:35.044Z,17.30
2023-03-02T21:33:01.918Z,18.25
2023-03-02T21:35:28.136Z,17.67
2023-03-02T21:37:56.976Z,17.48
2023-03-02T21:40:27.796Z,18.33
2023-03-02T21:42:54.497Z,17.65
2023-03-02T21:45:22.653Z,17.52
2023-03-02T21:47:49.255Z,18.58
2023-03-02T21:50:17.113Z,18.13
2023-03-02T21:52:43.526Z,18.75
2023-03-02T21:55:10.544Z,18.70
2023-03-02T21:57:36.841Z,16.90
2023-03-02T22:00:04.590Z,18.58
2023-03-02T22:02:31.150Z,17.25
2023-03-02T22:04:57.366Z,18.35
2023-03-02T22:07:23.680Z,18.58
2023-03-02T22:09:49.915Z,19.50
2023-03-02T22:12:16.178Z,19.70
2023-03-02T22:14:42.540Z,19.80
2023-03-02T22:17:17.171Z,20.17
2023-03-02T22:19:43.899Z,19.95
2023-03-02T22:22:23.787Z,18.73
2023-03-02T22:24:50.799Z,19.63
2023-03-02T22:27:20.040Z,20.52
2023-03-02T22:29:47.043Z,20.27
2023-03-02T22:32:21.219Z,20.80
2023-03-02T22:34:49.199Z,20.52
2023-03-02T22:37:19.906Z,21.17
2023-03-02T22:39:46.813Z,20.35
2023-03-02T22:42:13.010Z,20.63
2023-03-02T22:44:39.239Z,21.45
2023-03-02T22:47:12.212Z,21.52
2023-03-02T22:49:38.446Z,21.63
2023-03-02T22:52:11.190Z,22.38
2023-03-02T22:54:37.727Z,22.05
2023-03-02T22:57:13.588Z,23.80
2023-03-02T22:59:39.835Z,21.25
2023-03-02T23:02:14.644Z,20.80
2023-03-02T23:04:41.195Z,21.67
2023-03-02T23:07:16.133Z,22.90
2023-03-02T23:09:42.336Z,22.10
2023-03-02T23:12:20.483Z,22.95
2023-03-02T23:14:48.836Z,23.77
2023-03-02T23:17:18.825Z,23.73
2023-03-02T23:19:45.057Z,23.02
2023-03-02T23:22:11.296Z,24.15
2023-03-02T23:24:37.504Z,26.25
2023-03-02T23:27:03.800Z,25.17
2023-03-02T23:29:30.190Z,24.88
2023-03-02T23:31:57.179Z,26.02
2023-03-02T23:34:24.205Z,25.85
2023-03-02T23:36:50.443Z,26.08
2023-03-02T23:39:17.467Z,25.38
2023-03-02T23:41:43.792Z,27.05
2023-03-02T23:44:10.101Z,25.30
2023-03-02T23:46:36.378Z,24.38
2023-03-02T23:49:02.700Z,24.83
2023-03-02T23:51:28.924Z,23.65
2023-03-02T23:53:55.916Z,23.92
2023-03-02T23:56:22.212Z,23.95
2023-03-02T23:58:48.702Z,24.98
